createdAt,value
2022-11-20T04:09:44.141Z,-5.50
2022-11-20T04:12:13.030Z,-5.50
2022-11-20T04:14:44.956Z,-5.50
2022-11-20T04:17:13.295Z,-5.60
2022-11-20T04:19:44.506Z,-5.60
2022-11-20T04:22:13.323Z,-5.70
2022-11-20T04:24:43.519Z,-5.70
2022-11-20T04:27:12.078Z,-5.80
2022-11-20T04:29:40.420Z,-5.80
2022-11-20T04:32:09.035Z,-5.80
2022-11-20T04:34:40.431Z,-5.90
2022-11-20T04:37:11.288Z,-5.90
2022-11-20T04:39:43.246Z,-6.00
2022-11-20T04:42:30.522Z,-6.10
2022-11-20T04:44:59.473Z,-6.10
2022-11-20T04:47:27.757Z,-6.10
2022-11-20T04:49:56.009Z,-6.10
2022-11-20T04:52:24.503Z,-6.10
2022-11-20T04:54:54.934Z,-6.20
2022-11-20T04:57:23.270Z,-6.30
2022-11-20T04:59:51.599Z,-6.30
2022-11-20T05:02:20.547Z,-6.30
2022-11-20T05:04:48.951Z,-6.30
2022-11-20T05:07:19.641Z,-6.30
2022-11-20T05:09:48.024Z,-6.30
2022-11-20T05:12:17.787Z,-6.40
2022-11-20T05:14:46.231Z,-6.40
2022-11-20T05:17:15.468Z,-6.50
2022-11-20T05:19:43.699Z,-6.50
2022-11-20T05:22:12.225Z,-6.50
2022-11-20T05:24:40.607Z,-6.60
2022-11-20T05:27:09.500Z,-6.50
2022-11-20T05:29:39.181Z,-6.50
2022-11-20T05:32:12.092Z,-6.60
2022-11-20T05:34:40.429Z,-6.60
2022-11-20T05:37:13.250Z,-6.70
2022-11-20T05:39:41.612Z,-6.70
2022-11-20T05:42:27.427Z,-6.80
2022-11-20T05:44:57.198Z,-6.90
2022-11-20T05:47:25.565Z,-6.90
2022-11-20T05:49:53.935Z,-6.90
2022-11-20T05:52:24.661Z,-6.90
2022-11-20T05:54:53.070Z,-6.90
2022-11-20T05:57:21.497Z,-7.00
2022-11-20T05:59:50.019Z,-7.00
2022-11-20T06:02:23.375Z,-7.00
2022-11-20T06:04:53.750Z,-7.00
2022-11-20T06:07:22.266Z,-7.00
2022-11-20T06:09:53.488Z,-7.00
2022-11-20T06:12:21.892Z,-7.10
2022-11-20T06:14:50.277Z,-7.10
2022-11-20T06:17:23.264Z,-7.10
2022-11-20T06:19:51.692Z,-7.10
2022-11-20T06:22:20.104Z,-7.20
2022-11-20T06:24:48.733Z,-7.20
2022-11-20T06:27:17.932Z,-7.20
2022-11-20T06:29:46.237Z,-7.30
2022-11-20T06:32:16.503Z,-7.30
2022-11-20T06:34:48.235Z,-7.30
2022-11-20T06:37:19.619Z,-7.10
2022-11-20T06:39:50.276Z,-7.20
2022-11-20T06:42:18.786Z,-7.20
2022-11-20T06:44:47.396Z,-7.10
2022-11-20T06:47:18.205Z,-7.10
2022-11-20T06:49:49.570Z,-7.00
2022-11-20T06:52:17.978Z,-6.90
2022-11-20T06:54:47.656Z,-7.00
2022-11-20T06:57:17.773Z,-7.00
2022-11-20T06:59:46.260Z,-6.90
2022-11-20T07:02:15.861Z,-6.90
2022-11-20T07:04:44.533Z,-6.80
2022-11-20T07:07:14.339Z,-6.80
2022-11-20T07:09:42.646Z,-6.60
2022-11-20T07:12:11.106Z,-6.60
2022-11-20T07:14:39.411Z,-6.60
2022-11-20T07:17:07.670Z,-6.50
2022-11-20T07:19:36.109Z,-6.40
2022-11-20T07:22:04.332Z,-6.30
2022-11-20T07:24:34.069Z,-6.00
2022-11-20T07:27:02.344Z,-5.80
2022-11-20T07:29:32.396Z,-5.60
2022-11-20T07:32:00.812Z,-5.70
2022-11-20T07:34:29.120Z,-5.50
2022-11-20T07:36:57.495Z,-5.50
2022-11-20T07:39:25.778Z,-5.30
2022-11-20T07:41:55.444Z,-5.40
2022-11-20T07:44:25.337Z,-5.40
2022-11-20T07:46:53.783Z,-5.30
2022-11-20T07:49:22.290Z,-5.30
2022-11-20T07:51:58.308Z,-5.20
2022-11-20T07:54:30.188Z,-5.10
2022-11-20T07:56:59.848Z,-5.00
2022-11-20T07:59:28.173Z,-5.00
2022-11-20T08:01:57.429Z,-4.90
2022-11-20T08:04:25.767Z,-4.70
2022-11-20T08:06:54.885Z,-4.60
2022-11-20T08:09:23.514Z,-4.50
2022-11-20T08:12:12.723Z,-4.30
2022-11-20T08:14:44.202Z,-4.30
2022-11-20T08:17:12.592Z,-4.20
2022-11-20T08:19:41.003Z,-4.10
2022-11-20T08:22:09.431Z,-3.90
2022-11-20T08:24:37.712Z,-3.90
2022-11-20T08:27:07.985Z,-3.80
2022-11-20T08:29:36.366Z,-3.70
2022-11-20T08:32:08.289Z,-3.70
2022-11-20T08:34:36.629Z,-3.50
2022-11-20T08:37:08.451Z,-3.40
2022-11-20T08:39:42.490Z,-3.00
2022-11-20T08:42:13.203Z,-2.90
2022-11-20T08:44:42.951Z,-2.80
2022-11-20T08:47:12.888Z,-2.60
2022-11-20T08:49:41.221Z,-2.50
2022-11-20T08:52:09.601Z,-2.50
2022-11-20T08:54:38.012Z,-2.30
2022-11-20T08:57:06.405Z,-2.30
2022-11-20T09:00:04.456Z,-2.40
2022-11-20T09:02:27.771Z,-2.30
2022-11-20T09:04:56.205Z,-2.00
2022-11-20T09:07:28.093Z,-2.10
2022-11-20T09:10:22.202Z,-2.00
2022-11-20T09:12:44.700Z,-2.10
2022-11-20T09:15:16.296Z,-2.00
2022-11-20T09:17:53.174Z,-1.80
2022-11-20T09:20:21.849Z,-1.70
2022-11-20T09:22:52.506Z,-1.70
2022-11-20T09:25:20.942Z,-1.60
2022-11-20T09:27:49.439Z,-1.50
2022-11-20T09:30:18.331Z,-1.50
2022-11-20T09:32:48.176Z,-1.50
2022-11-20T09:35:16.757Z,-1.40
2022-11-20T09:37:44.986Z,-1.50
2022-11-20T09:40:22.691Z,-1.50
2022-11-20T09:42:57.463Z,-1.40
2022-11-20T09:45:37.713Z,-1.40
2022-11-20T09:48:28.641Z,-1.30
2022-11-20T09:51:03.247Z,-1.20
2022-11-20T09:53:37.845Z,-1.20
2022-11-20T09:56:06.933Z,-1.00
2022-11-20T09:58:40.827Z,-1.10
2022-11-20T10:01:14.556Z,-1.00
2022-11-20T10:03:54.026Z,-1.00
2022-11-20T10:06:31.443Z,-0.90
2022-11-20T10:09:09.074Z,-0.90
2022-11-20T10:11:48.797Z,-0.90
2022-11-20T10:14:28.561Z,-0.90
2022-11-20T10:17:06.042Z,-0.70
2022-11-20T10:19:49.733Z,-0.70
2022-11-20T10:22:37.103Z,-0.60
2022-11-20T10:25:12.913Z,-0.60
2022-11-20T10:28:03.661Z,-0.50
2022-11-20T10:30:33.528Z,-0.50
2022-11-20T10:33:08.516Z,-0.50
2022-11-20T10:35:43.141Z,-0.40
2022-11-20T10:38:18.502Z,-0.60
2022-11-20T10:40:51.049Z,-0.40
2022-11-20T10:43:24.007Z,-0.30
2022-11-20T10:45:59.275Z,-0.10
2022-11-20T10:48:29.841Z,-0.20
2022-11-20T10:51:21.133Z,-0.20
2022-11-20T10:54:10.582Z,-0.20
2022-11-20T10:56:49.494Z,-0.10
2022-11-20T10:59:40.918Z,0.00
2022-11-20T11:02:21.750Z,-0.20
2022-11-20T11:04:51.954Z,-0.10
2022-11-20T11:07:28.272Z,0.00
2022-11-20T11:09:58.436Z,0.00
2022-11-20T11:12:29.956Z,0.00
2022-11-20T11:14:59.909Z,0.10
2022-11-20T11:17:32.705Z,0.30
2022-11-20T11:20:06.834Z,0.30
2022-11-20T11:22:47.934Z,0.40
2022-11-20T11:25:29.006Z,0.20
2022-11-20T11:27:58.750Z,0.20
2022-11-20T11:30:28.830Z,0.20
2022-11-20T11:33:08.465Z,0.20
2022-11-20T11:35:51.107Z,0.10
2022-11-20T11:38:24.879Z,0.20
2022-11-20T11:40:57.535Z,0.20
2022-11-20T11:43:45.682Z,0.30
2022-11-20T11:46:29.083Z,0.20
2022-11-20T11:49:01.792Z,0.20
2022-11-20T11:51:38.357Z,0.20
2022-11-20T11:54:22.939Z,0.20
2022-11-20T11:56:51.638Z,0.20
2022-11-20T11:59:35.890Z,0.30
2022-11-20T12:02:15.948Z,0.30
2022-11-20T12:04:48.422Z,0.30
2022-11-20T12:07:45.464Z,0.30
2022-11-20T12:10:20.844Z,0.30
2022-11-20T12:12:55.626Z,0.30
2022-11-20T12:15:35.747Z,0.30
2022-11-20T12:18:04.019Z,0.30
2022-11-20T12:20:43.290Z,0.40
2022-11-20T12:23:19.994Z,0.40
2022-11-20T12:25:55.162Z,0.40
2022-11-20T12:28:39.567Z,0.30
2022-11-20T12:31:26.052Z,0.40
2022-11-20T12:34:07.051Z,0.40
2022-11-20T12:36:43.049Z,0.30
2022-11-20T12:39:30.038Z,0.30
2022-11-20T12:42:40.535Z,0.20
2022-11-20T12:45:37.636Z,0.20
2022-11-20T12:48:25.960Z,0.20
2022-11-20T12:51:15.537Z,0.20
2022-11-20T12:53:54.085Z,0.20
2022-11-20T12:56:33.226Z,0.10
2022-11-20T12:59:19.333Z,0.00
2022-11-20T13:01:52.975Z,0.30
2022-11-20T13:04:49.701Z,0.10
2022-11-20T13:07:19.414Z,0.20
2022-11-20T13:09:49.905Z,0.10
2022-11-20T13:12:25.721Z,0.10
2022-11-20T13:15:06.458Z,0.10
2022-11-20T13:17:40.176Z,0.10
2022-11-20T13:20:16.057Z,0.10
2022-11-20T13:22:47.169Z,0.10
2022-11-20T13:25:25.177Z,0.10
2022-11-20T13:27:53.919Z,0.00
2022-11-20T13:30:25.203Z,0.00
2022-11-20T13:32:55.790Z,0.00
2022-11-20T13:35:32.978Z,0.10
2022-11-20T13:38:10.307Z,0.00
2022-11-20T13:40:40.819Z,0.00
2022-11-20T13:43:24.682Z,0.00
2022-11-20T13:46:02.631Z,-0.10
2022-11-20T13:48:34.143Z,-0.10
2022-11-20T13:51:14.254Z,0.00
2022-11-20T13:54:06.273Z,0.00
2022-11-20T13:56:45.597Z,-0.10
2022-11-20T13:59:29.401Z,-0.20
2022-11-20T14:01:59.119Z,-0.30
2022-11-20T14:04:31.687Z,-0.30
2022-11-20T14:07:00.311Z,-0.30
2022-11-20T14:09:29.949Z,-0.50
2022-11-20T14:11:58.825Z,-0.60
2022-11-20T14:14:27.942Z,-0.70
2022-11-20T14:17:09.343Z,-0.80
2022-11-20T14:19:38.454Z,-0.90
2022-11-20T14:22:13.127Z,-1.00
2022-11-20T14:24:41.495Z,-1.10
2022-11-20T14:27:15.314Z,-1.20
2022-11-20T14:29:45.444Z,-1.20
2022-11-20T14:32:18.136Z,-1.30
2022-11-20T14:34:49.583Z,-1.30
2022-11-20T14:37:22.669Z,-1.40
2022-11-20T14:39:54.027Z,-1.30
2022-11-20T14:42:24.503Z,-1.40
2022-11-20T14:44:55.012Z,-1.40
2022-11-20T14:47:27.541Z,-1.40
2022-11-20T14:49:57.815Z,-1.50
2022-11-20T14:52:27.856Z,-1.50
2022-11-20T14:55:00.542Z,-1.50
2022-11-20T14:57:30.752Z,-1.60
2022-11-20T15:00:20.868Z,-1.60
2022-11-20T15:02:51.788Z,-1.60
2022-11-20T15:05:21.861Z,-1.70
2022-11-20T15:07:51.758Z,-1.60
2022-11-20T15:10:25.646Z,-1.60
2022-11-20T15:12:55.664Z,-1.60
2022-11-20T15:15:30.582Z,-1.50
2022-11-20T15:18:00.807Z,-1.40
2022-11-20T15:20:32.167Z,-1.50
2022-11-20T15:23:00.664Z,-1.40
2022-11-20T15:25:29.289Z,-1.40
2022-11-20T15:27:58.792Z,-1.30
2022-11-20T15:30:27.152Z,-1.30
2022-11-20T15:32:55.273Z,-1.30
2022-11-20T15:35:24.811Z,-1.30
2022-11-20T15:37:52.926Z,-1.30
2022-11-20T15:40:21.100Z,-1.40
2022-11-20T15:43:05.739Z,-1.40
2022-11-20T15:45:40.899Z,-1.40
2022-11-20T15:48:13.780Z,-1.40
2022-11-20T15:50:54.421Z,-1.30
2022-11-20T15:53:22.835Z,-1.50
2022-11-20T15:55:51.211Z,-1.60
2022-11-20T15:58:19.367Z,-1.60
2022-11-20T16:00:47.996Z,-1.70
2022-11-20T16:03:17.134Z,-1.80
2022-11-20T16:05:47.109Z,-1.80
2022-11-20T16:08:15.398Z,-1.90
2022-11-20T16:10:43.678Z,-1.90
2022-11-20T16:13:42.698Z,-2.00
2022-11-20T16:16:26.792Z,-1.90
2022-11-20T16:18:54.980Z,-1.90
2022-11-20T16:21:28.551Z,-1.90
2022-11-20T16:23:56.691Z,-2.00
2022-11-20T16:26:24.870Z,-2.00
2022-11-20T16:28:53.025Z,-2.00
2022-11-20T16:31:21.983Z,-2.00
2022-11-20T16:33:53.818Z,-2.00
2022-11-20T16:36:25.038Z,-1.90
2022-11-20T16:38:54.720Z,-1.90
2022-11-20T16:41:23.158Z,-1.90
2022-11-20T16:43:53.413Z,-1.90
2022-11-20T16:46:23.083Z,-1.80
2022-11-20T16:48:55.961Z,-1.80
2022-11-20T16:51:28.635Z,-1.90
2022-11-20T16:53:57.109Z,-1.70
2022-11-20T16:56:26.954Z,-1.80
2022-11-20T16:58:56.827Z,-1.90
2022-11-20T17:01:26.450Z,-1.90
2022-11-20T17:03:59.531Z,-1.80
2022-11-20T17:06:31.722Z,-1.80
2022-11-20T17:09:00.458Z,-1.80
2022-11-20T17:11:29.375Z,-1.80
2022-11-20T17:14:00.617Z,-1.80
2022-11-20T17:16:29.355Z,-1.80
2022-11-20T17:19:02.585Z,-1.80
2022-11-20T17:21:33.378Z,-1.90
2022-11-20T17:24:03.273Z,-1.90
2022-11-20T17:26:32.270Z,-1.90
2022-11-20T17:29:02.107Z,-2.00
2022-11-20T17:31:32.370Z,-2.00
2022-11-20T17:34:01.796Z,-2.00
2022-11-20T17:36:32.313Z,-2.00
2022-11-20T17:39:00.953Z,-2.00
2022-11-20T17:41:30.664Z,-1.90
2022-11-20T17:44:00.702Z,-2.00
2022-11-20T17:46:32.773Z,-2.00
2022-11-20T17:49:01.356Z,-2.00
2022-11-20T17:51:31.637Z,-1.90
2022-11-20T17:54:03.310Z,-2.00
2022-11-20T17:56:50.523Z,-2.10
2022-11-20T17:59:19.746Z,-2.00
2022-11-20T18:01:47.985Z,-2.10
2022-11-20T18:04:16.950Z,-2.20
2022-11-20T18:06:45.480Z,-2.30
2022-11-20T18:09:15.490Z,-2.30
2022-11-20T18:11:44.699Z,-2.40
2022-11-20T18:14:32.720Z,-2.50
2022-11-20T18:17:03.571Z,-2.60
2022-11-20T18:19:36.497Z,-2.60
2022-11-20T18:22:09.028Z,-2.80
2022-11-20T18:24:39.676Z,-2.60
2022-11-20T18:27:10.526Z,-2.80
2022-11-20T18:29:38.705Z,-2.80
2022-11-20T18:32:07.021Z,-2.90
2022-11-20T18:34:35.526Z,-2.90
2022-11-20T18:37:03.948Z,-3.00
2022-11-20T18:39:33.522Z,-3.00
2022-11-20T18:42:20.932Z,-3.00
2022-11-20T18:44:52.358Z,-2.90
2022-11-20T18:47:23.222Z,-3.10
2022-11-20T18:49:52.922Z,-3.20
2022-11-20T18:52:23.219Z,-3.20
2022-11-20T18:54:52.399Z,-3.10
2022-11-20T18:57:23.773Z,-3.40
2022-11-20T18:59:53.813Z,-3.30
2022-11-20T19:02:23.080Z,-3.30
2022-11-20T19:04:51.457Z,-3.40
2022-11-20T19:07:23.408Z,-3.40
2022-11-20T19:10:04.361Z,-3.50
2022-11-20T19:12:34.404Z,-3.50
2022-11-20T19:15:02.770Z,-3.60
2022-11-20T19:17:33.696Z,-3.70
2022-11-20T19:20:02.226Z,-3.60
2022-11-20T19:22:30.543Z,-3.50
2022-11-20T19:24:58.929Z,-3.70
2022-11-20T19:27:27.251Z,-3.80
2022-11-20T19:30:03.222Z,-3.70
2022-11-20T19:32:32.680Z,-3.50
2022-11-20T19:35:01.437Z,-3.50
2022-11-20T19:37:31.249Z,-3.50
2022-11-20T19:39:59.937Z,-3.50
2022-11-20T19:42:28.385Z,-3.40
2022-11-20T19:44:59.231Z,-3.40
2022-11-20T19:47:46.080Z,-3.30
2022-11-20T19:50:22.140Z,-3.40
2022-11-20T19:52:53.150Z,-3.40
2022-11-20T19:55:26.039Z,-3.30
2022-11-20T19:57:54.652Z,-3.40
2022-11-20T20:00:29.549Z,-3.50
2022-11-20T20:03:00.772Z,-3.40
2022-11-20T20:05:29.085Z,-3.40
2022-11-20T20:07:58.443Z,-3.50
2022-11-20T20:10:26.663Z,-3.50
2022-11-20T20:12:54.948Z,-3.50
2022-11-20T20:15:24.915Z,-3.60
2022-11-20T20:17:55.939Z,-3.60
2022-11-20T20:20:24.301Z,-3.70
2022-11-20T20:22:52.684Z,-3.80
2022-11-20T20:25:21.102Z,-3.70
2022-11-20T20:27:49.478Z,-3.60
2022-11-20T20:30:20.403Z,-3.60
2022-11-20T20:32:55.930Z,-3.50
2022-11-20T20:35:25.241Z,-3.40
2022-11-20T20:37:53.647Z,-3.30
2022-11-20T20:40:22.124Z,-3.20
2022-11-20T20:42:50.954Z,-3.10
2022-11-20T20:45:19.359Z,-3.00
2022-11-20T20:47:49.006Z,-3.00
2022-11-20T20:50:17.701Z,-2.90
2022-11-20T20:52:46.458Z,-2.80
2022-11-20T20:55:15.054Z,-2.70
2022-11-20T20:57:45.428Z,-2.60
2022-11-20T21:00:15.871Z,-2.60
2022-11-20T21:02:44.362Z,-2.50
2022-11-20T21:05:30.515Z,-2.50
2022-11-20T21:08:16.202Z,-2.50
2022-11-20T21:10:44.849Z,-2.40
2022-11-20T21:13:14.867Z,-2.30
2022-11-20T21:15:44.234Z,-2.30
2022-11-20T21:18:12.784Z,-2.30
2022-11-20T21:21:00.940Z,-2.30
2022-11-20T21:23:29.258Z,-2.30
2022-11-20T21:25:57.883Z,-2.30
2022-11-20T21:28:29.447Z,-2.30
2022-11-20T21:31:05.861Z,-2.10
2022-11-20T21:33:39.405Z,-2.10
2022-11-20T21:36:10.196Z,-2.20
2022-11-20T21:38:39.763Z,-2.10
2022-11-20T21:41:10.381Z,-2.10
2022-11-20T21:43:39.496Z,-2.10
2022-11-20T21:46:10.077Z,-2.00
2022-11-20T21:48:40.346Z,-2.10
2022-11-20T21:51:13.809Z,-2.00
2022-11-20T21:53:43.201Z,-2.00
2022-11-20T21:56:16.439Z,-2.00
2022-11-20T21:58:49.110Z,-2.00
2022-11-20T22:01:19.868Z,-2.00
2022-11-20T22:03:49.525Z,-2.00
2022-11-20T22:06:19.717Z,-2.00
2022-11-20T22:08:48.901Z,-1.90
2022-11-20T22:11:19.266Z,-2.00
2022-11-20T22:14:05.913Z,-2.00
2022-11-20T22:16:34.825Z,-1.90
2022-11-20T22:19:03.214Z,-2.00
2022-11-20T22:21:33.483Z,-1.90
2022-11-20T22:24:02.405Z,-1.90
2022-11-20T22:26:36.110Z,-1.90
2022-11-20T22:29:07.291Z,-1.90
2022-11-20T22:31:35.620Z,-1.70
2022-11-20T22:34:04.257Z,-1.80
2022-11-20T22:36:34.019Z,-1.90
2022-11-20T22:39:04.346Z,-1.90
2022-11-20T22:41:33.418Z,-1.90
2022-11-20T22:44:03.554Z,-2.00
2022-11-20T22:46:34.016Z,-2.10
2022-11-20T22:49:04.533Z,-2.20
2022-11-20T22:51:35.685Z,-2.30
2022-11-20T22:54:04.668Z,-2.40
2022-11-20T22:56:33.473Z,-2.50
2022-11-20T22:59:01.709Z,-2.50
2022-11-20T23:01:31.562Z,-2.60
